sensor_id;sensor_type;location;lat;lon;timestamp;pressure;altitude;pressure_sealevel;temperature;humidity
77041;BME280;65974;42.664;23.264;2023-05-17T00:00:07;93817.88;;;13.02;91.57
77041;BME280;65974;42.664;23.264;2023-05-17T00:02:34;93821.31;;;13.02;91.16
77041;BME280;65974;42.664;23.264;2023-05-17T00:04:59;93828.28;;;12.96;91.25
77041;BME280;65974;42.664;23.264;2023-05-17T00:07:25;93828.75;;;12.91;91.62
77041;BME280;65974;42.664;23.264;2023-05-17T00:09:50;93830.47;;;12.78;91.87
77041;BME280;65974;42.664;23.264;2023-05-17T00:12:16;93834.78;;;12.72;92.29
77041;BME280;65974;42.664;23.264;2023-05-17T00:14:41;93825.28;;;12.68;92.42
77041;BME280;65974;42.664;23.264;2023-05-17T00:17:06;93827.09;;;12.74;92.38
77041;BME280;65974;42.664;23.264;2023-05-17T00:19:32;93822.69;;;12.64;92.69
77041;BME280;65974;42.664;23.264;2023-05-17T00:21:57;93826.63;;;12.56;92.62
77041;BME280;65974;42.664;23.264;2023-05-17T00:24:23;93827.44;;;12.53;92.93
77041;BME280;65974;42.664;23.264;2023-05-17T00:26:48;93813.78;;;12.48;92.84
77041;BME280;65974;42.664;23.264;2023-05-17T00:29:14;93813.78;;;12.48;92.81
77041;BME280;65974;42.664;23.264;2023-05-17T00:31:40;93815.78;;;12.40;93.18
77041;BME280;65974;42.664;23.264;2023-05-17T00:34:05;93815.53;;;12.31;93.18
77041;BME280;65974;42.664;23.264;2023-05-17T00:36:31;93812.91;;;12.27;93.32
77041;BME280;65974;42.664;23.264;2023-05-17T00:38:56;93812.06;;;12.34;93.46
77041;BME280;65974;42.664;23.264;2023-05-17T00:41:23;93819.28;;;12.37;93.09
77041;BME280;65974;42.664;23.264;2023-05-17T00:43:49;93827.72;;;12.32;93.10
77041;BME280;65974;42.664;23.264;2023-05-17T00:46:14;93834.31;;;12.24;93.24
77041;BME280;65974;42.664;23.264;2023-05-17T00:48:41;93825.97;;;12.22;93.56
77041;BME280;65974;42.664;23.264;2023-05-17T00:51:06;93822.63;;;12.14;93.45
77041;BME280;65974;42.664;23.264;2023-05-17T00:53:32;93833.25;;;12.18;93.44
77041;BME280;65974;42.664;23.264;2023-05-17T00:55:59;93839.75;;;12.17;93.63
77041;BME280;65974;42.664;23.264;2023-05-17T00:58:25;93843.19;;;12.17;92.87
77041;BME280;65974;42.664;23.264;2023-05-17T01:00:50;93833.25;;;12.18;92.94
77041;BME280;65974;42.664;23.264;2023-05-17T01:03:16;93827.09;;;12.24;92.82
77041;BME280;65974;42.664;23.264;2023-05-17T01:05:42;93827.44;;;12.26;92.39
77041;BME280;65974;42.664;23.264;2023-05-17T01:08:07;93827.09;;;12.21;92.60
77041;BME280;65974;42.664;23.264;2023-05-17T01:10:43;93833.25;;;12.18;92.38
77041;BME280;65974;42.664;23.264;2023-05-17T01:13:20;93825.00;;;12.09;92.60
77041;BME280;65974;42.664;23.264;2023-05-17T01:15:55;93824.31;;;12.01;93.02
77041;BME280;65974;42.664;23.264;2023-05-17T01:18:42;93820.50;;;12.02;93.25
77041;BME280;65974;42.664;23.264;2023-05-17T01:23:58;93819.28;;;12.07;93.10
77041;BME280;65974;42.664;23.264;2023-05-17T01:26:39;93823.47;;;12.08;92.35
77041;BME280;65974;42.664;23.264;2023-05-17T01:29:07;93832.41;;;11.94;92.63
77041;BME280;65974;42.664;23.264;2023-05-17T01:31:35;93830.13;;;11.93;92.78
77041;BME280;65974;42.664;23.264;2023-05-17T01:34:06;93826.69;;;11.96;92.52
77041;BME280;65974;42.664;23.264;2023-05-17T01:36:31;93819.16;;;11.87;92.51
77041;BME280;65974;42.664;23.264;2023-05-17T01:38:57;93826.56;;;11.73;93.39
77041;BME280;65974;42.664;23.264;2023-05-17T01:41:39;93830.38;;;11.72;93.41
77041;BME280;65974;42.664;23.264;2023-05-17T01:47:29;93832.41;;;11.60;94.00
77041;BME280;65974;42.664;23.264;2023-05-17T01:49:58;93824.34;;;11.67;93.69
77041;BME280;65974;42.664;23.264;2023-05-17T01:52:36;93827.28;;;11.77;93.21
77041;BME280;65974;42.664;23.264;2023-05-17T01:55:07;93820.06;;;11.74;93.15
77041;BME280;65974;42.664;23.264;2023-05-17T01:57:35;93822.84;;;11.66;93.60
77041;BME280;65974;42.664;23.264;2023-05-17T02:00:07;93814.22;;;11.52;93.59
77041;BME280;65974;42.664;23.264;2023-05-17T02:02:34;93824.53;;;11.46;94.18
77041;BME280;65974;42.664;23.264;2023-05-17T02:05:00;93817.59;;;11.56;94.08
77041;BME280;65974;42.664;23.264;2023-05-17T02:07:25;93813.44;;;11.51;94.06
77041;BME280;65974;42.664;23.264;2023-05-17T02:09:50;93803.50;;;11.55;93.60
77041;BME280;65974;42.664;23.264;2023-05-17T02:12:16;93818.03;;;11.51;93.79
77041;BME280;65974;42.664;23.264;2023-05-17T02:14:41;93818.06;;;11.47;94.08
77041;BME280;65974;42.664;23.264;2023-05-17T02:17:07;93814.69;;;11.43;93.71
77041;BME280;65974;42.664;23.264;2023-05-17T02:19:32;93810.50;;;11.42;93.79
77041;BME280;65974;42.664;23.264;2023-05-17T02:21:58;93802.19;;;11.37;94.11
77041;BME280;65974;42.664;23.264;2023-05-17T02:24:24;93807.88;;;11.39;93.60
77041;BME280;65974;42.664;23.264;2023-05-17T02:26:49;93809.00;;;11.38;93.54
77041;BME280;65974;42.664;23.264;2023-05-17T02:29:15;93808.28;;;11.34;93.75
77041;BME280;65974;42.664;23.264;2023-05-17T02:31:40;93803.84;;;11.24;93.75
77041;BME280;65974;42.664;23.264;2023-05-17T02:34:06;93809.88;;;11.28;93.73
77041;BME280;65974;42.664;23.264;2023-05-17T02:36:32;93804.50;;;11.31;93.50
77041;BME280;65974;42.664;23.264;2023-05-17T02:38:57;93808.41;;;11.23;93.37
77041;BME280;65974;42.664;23.264;2023-05-17T02:41:23;93811.06;;;11.23;93.39
77041;BME280;65974;42.664;23.264;2023-05-17T02:43:49;93814.25;;;11.11;93.48
77041;BME280;65974;42.664;23.264;2023-05-17T02:46:14;93813.06;;;11.12;93.98
77041;BME280;65974;42.664;23.264;2023-05-17T02:48:40;93816.09;;;11.14;93.71
77041;BME280;65974;42.664;23.264;2023-05-17T02:51:05;93820.66;;;11.17;92.99
77041;BME280;65974;42.664;23.264;2023-05-17T02:53:31;93822.25;;;11.11;92.41
77041;BME280;65974;42.664;23.264;2023-05-17T02:55:56;93833.28;;;11.10;92.57
77041;BME280;65974;42.664;23.264;2023-05-17T02:58:23;93831.16;;;10.94;93.43
77041;BME280;65974;42.664;23.264;2023-05-17T03:00:49;93830.03;;;10.91;93.32
77041;BME280;65974;42.664;23.264;2023-05-17T03:03:15;93839.59;;;10.82;93.36
77041;BME280;65974;42.664;23.264;2023-05-17T03:05:40;93847.22;;;10.83;93.73
77041;BME280;65974;42.664;23.264;2023-05-17T03:08:05;93848.75;;;10.81;94.01
77041;BME280;65974;42.664;23.264;2023-05-17T03:10:31;93858.25;;;10.82;93.86
77041;BME280;65974;42.664;23.264;2023-05-17T03:12:56;93855.22;;;10.80;94.06
77041;BME280;65974;42.664;23.264;2023-05-17T03:15:22;93855.56;;;10.82;94.10
77041;BME280;65974;42.664;23.264;2023-05-17T03:17:47;93852.56;;;10.80;93.90
77041;BME280;65974;42.664;23.264;2023-05-17T03:20:13;93859.03;;;10.79;93.72
77041;BME280;65974;42.664;23.264;2023-05-17T03:22:38;93866.22;;;10.82;93.80
77041;BME280;65974;42.664;23.264;2023-05-17T03:25:04;93877.25;;;10.84;94.00
77041;BME280;65974;42.664;23.264;2023-05-17T03:27:30;93869.66;;;10.82;93.76
77041;BME280;65974;42.664;23.264;2023-05-17T03:29:56;93865.88;;;10.80;93.97
77041;BME280;65974;42.664;23.264;2023-05-17T03:32:21;93864.69;;;10.84;93.68
77041;BME280;65974;42.664;23.264;2023-05-17T03:34:47;93866.59;;;10.87;93.65
77041;BME280;65974;42.664;23.264;2023-05-17T03:37:12;93853.63;;;10.89;93.10
77041;BME280;65974;42.664;23.264;2023-05-17T03:39:37;93855.25;;;10.76;93.12
77041;BME280;65974;42.664;23.264;2023-05-17T03:42:03;93851.41;;;10.81;92.86
77041;BME280;65974;42.664;23.264;2023-05-17T03:44:30;93860.16;;;10.81;93.07
77041;BME280;65974;42.664;23.264;2023-05-17T03:46:55;93861.59;;;10.93;92.43
77041;BME280;65974;42.664;23.264;2023-05-17T03:49:20;93859.28;;;10.99;92.17
77041;BME280;65974;42.664;23.264;2023-05-17T03:51:46;93852.47;;;10.94;92.28
77041;BME280;65974;42.664;23.264;2023-05-17T03:54:11;93854.41;;;10.86;92.85
77041;BME280;65974;42.664;23.264;2023-05-17T03:56:37;93858.69;;;10.77;92.80
77041;BME280;65974;42.664;23.264;2023-05-17T03:59:02;93853.00;;;10.75;93.14
77041;BME280;65974;42.664;23.264;2023-05-17T04:01:27;93860.63;;;10.73;93.32
77041;BME280;65974;42.664;23.264;2023-05-17T04:03:53;93868.59;;;10.73;93.41
77041;BME280;65974;42.664;23.264;2023-05-17T04:06:18;93858.31;;;10.75;93.58
77041;BME280;65974;42.664;23.264;2023-05-17T04:08:44;93863.94;;;10.84;93.82
77041;BME280;65974;42.664;23.264;2023-05-17T04:11:09;93862.00;;;10.91;93.41
77041;BME280;65974;42.664;23.264;2023-05-17T04:13:37;93862.72;;;10.96;93.42
77041;BME280;65974;42.664;23.264;2023-05-17T04:16:02;93862.72;;;10.96;93.57
77041;BME280;65974;42.664;23.264;2023-05-17T04:18:28;93861.09;;;11.09;93.56
77041;BME280;65974;42.664;23.264;2023-05-17T04:20:54;93873.56;;;11.19;93.78
77041;BME280;65974;42.664;23.264;2023-05-17T04:23:20;93855.66;;;11.19;94.15
77041;BME280;65974;42.664;23.264;2023-05-17T04:25:45;93867.81;;;11.24;93.79
77041;BME280;65974;42.664;23.264;2023-05-17T04:28:11;93869.22;;;11.35;93.88
77041;BME280;65974;42.664;23.264;2023-05-17T04:30:44;93858.84;;;11.44;92.65
77041;BME280;65974;42.664;23.264;2023-05-17T04:33:10;93858.44;;;11.49;91.87
77041;BME280;65974;42.664;23.264;2023-05-17T04:35:37;93864.78;;;11.59;91.66
77041;BME280;65974;42.664;23.264;2023-05-17T04:38:02;93861.34;;;11.62;90.83
77041;BME280;65974;42.664;23.264;2023-05-17T04:40:28;93859.38;;;11.66;91.81
77041;BME280;65974;42.664;23.264;2023-05-17T04:42:53;93870.47;;;11.64;91.62
77041;BME280;65974;42.664;23.264;2023-05-17T04:45:18;93862.41;;;11.72;91.41
77041;BME280;65974;42.664;23.264;2023-05-17T04:47:44;93861.59;;;11.75;91.79
77041;BME280;65974;42.664;23.264;2023-05-17T04:50:09;93861.59;;;11.75;90.90
77041;BME280;65974;42.664;23.264;2023-05-17T04:52:36;93868.44;;;11.79;90.44
77041;BME280;65974;42.664;23.264;2023-05-17T04:55:02;93863.81;;;11.83;90.70
77041;BME280;65974;42.664;23.264;2023-05-17T04:57:27;93867.66;;;11.79;90.91
77041;BME280;65974;42.664;23.264;2023-05-17T04:59:53;93866.06;;;11.85;91.54
77041;BME280;65974;42.664;23.264;2023-05-17T05:02:19;93870.56;;;11.91;90.63
77041;BME280;65974;42.664;23.264;2023-05-17T05:04:45;93864.69;;;12.03;90.61
77041;BME280;65974;42.664;23.264;2023-05-17T05:07:11;93877.66;;;12.05;89.85
77041;BME280;65974;42.664;23.264;2023-05-17T05:09:36;93879.56;;;12.04;89.24
77041;BME280;65974;42.664;23.264;2023-05-17T05:12:02;93875.25;;;12.14;89.36
77041;BME280;65974;42.664;23.264;2023-05-17T05:14:27;93883.88;;;12.25;89.01
77041;BME280;65974;42.664;23.264;2023-05-17T05:16:53;93891.47;;;12.30;88.13
77041;BME280;65974;42.664;23.264;2023-05-17T05:19:19;93889.91;;;12.32;88.33
77041;BME280;65974;42.664;23.264;2023-05-17T05:21:46;93886.28;;;12.46;87.65
77041;BME280;65974;42.664;23.264;2023-05-17T05:24:12;93885.25;;;12.67;87.00
77041;BME280;65974;42.664;23.264;2023-05-17T05:26:37;93885.78;;;12.81;86.87
77041;BME280;65974;42.664;23.264;2023-05-17T05:29:03;93881.44;;;12.91;87.04
77041;BME280;65974;42.664;23.264;2023-05-17T05:31:28;93881.00;;;12.96;87.27
77041;BME280;65974;42.664;23.264;2023-05-17T05:33:54;93884.53;;;13.16;86.12
77041;BME280;65974;42.664;23.264;2023-05-17T05:36:20;93881.03;;;13.42;84.50
77041;BME280;65974;42.664;23.264;2023-05-17T05:38:47;93877.53;;;13.45;84.23
77041;BME280;65974;42.664;23.264;2023-05-17T05:41:12;93878.06;;;13.60;82.12
77041;BME280;65974;42.664;23.264;2023-05-17T05:43:38;93882.31;;;13.77;80.59
77041;BME280;65974;42.664;23.264;2023-05-17T05:46:03;93877.31;;;13.79;80.36
77041;BME280;65974;42.664;23.264;2023-05-17T05:48:29;93881.72;;;13.89;79.37
77041;BME280;65974;42.664;23.264;2023-05-17T05:50:54;93882.75;;;14.15;79.63
77041;BME280;65974;42.664;23.264;2023-05-17T05:53:20;93884.53;;;14.21;78.50
77041;BME280;65974;42.664;23.264;2023-05-17T05:55:46;93876.72;;;14.30;77.44
77041;BME280;65974;42.664;23.264;2023-05-17T05:58:11;93885.97;;;14.45;75.47
77041;BME280;65974;42.664;23.264;2023-05-17T06:00:37;93879.72;;;14.52;77.10
77041;BME280;65974;42.664;23.264;2023-05-17T06:03:03;93882.34;;;14.71;75.82
77041;BME280;65974;42.664;23.264;2023-05-17T06:05:29;93895.16;;;14.64;75.60
77041;BME280;65974;42.664;23.264;2023-05-17T06:07:54;93890.75;;;14.73;75.66
77041;BME280;65974;42.664;23.264;2023-05-17T06:10:20;93887.41;;;14.86;75.35
77041;BME280;65974;42.664;23.264;2023-05-17T06:12:45;93891.84;;;14.92;74.61
77041;BME280;65974;42.664;23.264;2023-05-17T06:15:11;93895.69;;;14.91;74.53
77041;BME280;65974;42.664;23.264;2023-05-17T06:17:36;93899.13;;;15.08;74.13
77041;BME280;65974;42.664;23.264;2023-05-17T06:20:02;93894.13;;;15.10;74.55
77041;BME280;65974;42.664;23.264;2023-05-17T06:22:27;93898.06;;;15.21;72.84
77041;BME280;65974;42.664;23.264;2023-05-17T06:24:53;93894.47;;;15.12;73.53
77041;BME280;65974;42.664;23.264;2023-05-17T06:27:18;93899.16;;;15.24;72.69
77041;BME280;65974;42.664;23.264;2023-05-17T06:29:44;93896.81;;;15.26;71.98
77041;BME280;65974;42.664;23.264;2023-05-17T06:32:09;93910.06;;;15.17;73.19
77041;BME280;65974;42.664;23.264;2023-05-17T06:34:35;93901.25;;;15.32;73.26
77041;BME280;65974;42.664;23.264;2023-05-17T06:37:00;93906.03;;;15.41;73.95
77041;BME280;65974;42.664;23.264;2023-05-17T06:39:26;93908.59;;;15.48;72.18
77041;BME280;65974;42.664;23.264;2023-05-17T06:41:51;93913.53;;;15.49;72.43
77041;BME280;65974;42.664;23.264;2023-05-17T06:44:17;93908.91;;;15.50;72.63
77041;BME280;65974;42.664;23.264;2023-05-17T06:46:42;93903.13;;;15.51;72.94
77041;BME280;65974;42.664;23.264;2023-05-17T06:49:07;93904.00;;;15.61;72.80
77041;BME280;65974;42.664;23.264;2023-05-17T06:51:33;93894.97;;;15.71;72.19
77041;BME280;65974;42.664;23.264;2023-05-17T06:53:58;93902.25;;;15.71;72.12
77041;BME280;65974;42.664;23.264;2023-05-17T06:56:24;93897.66;;;15.71;71.84
77041;BME280;65974;42.664;23.264;2023-05-17T06:58:49;93890.41;;;15.84;72.13
77041;BME280;65974;42.664;23.264;2023-05-17T07:01:15;93893.78;;;16.01;71.83
77041;BME280;65974;42.664;23.264;2023-05-17T07:03:41;93896.41;;;16.17;71.54
77041;BME280;65974;42.664;23.264;2023-05-17T07:06:07;93897.84;;;16.21;70.75
77041;BME280;65974;42.664;23.264;2023-05-17T07:08:32;93910.53;;;16.33;70.66
77041;BME280;65974;42.664;23.264;2023-05-17T07:10:58;93906.78;;;16.31;69.75
77041;BME280;65974;42.664;23.264;2023-05-17T07:13:23;93910.13;;;16.35;70.62
77041;BME280;65974;42.664;23.264;2023-05-17T07:15:49;93915.59;;;16.31;70.19
77041;BME280;65974;42.664;23.264;2023-05-17T07:18:14;93908.28;;;16.32;70.20
77041;BME280;65974;42.664;23.264;2023-05-17T07:20:40;93920.25;;;16.44;70.94
77041;BME280;65974;42.664;23.264;2023-05-17T07:23:06;93919.78;;;16.61;69.72
77041;BME280;65974;42.664;23.264;2023-05-17T07:25:32;93920.72;;;16.55;69.48
77041;BME280;65974;42.664;23.264;2023-05-17T07:27:57;93921.75;;;16.45;70.93
77041;BME280;65974;42.664;23.264;2023-05-17T07:30:22;93914.06;;;16.59;70.75
77041;BME280;65974;42.664;23.264;2023-05-17T07:32:48;93910.66;;;16.59;69.89
77041;BME280;65974;42.664;23.264;2023-05-17T07:35:13;93923.75;;;16.57;69.84
77041;BME280;65974;42.664;23.264;2023-05-17T07:37:39;93917.03;;;16.49;69.20
77041;BME280;65974;42.664;23.264;2023-05-17T07:40:05;93927.78;;;16.49;70.86
77041;BME280;65974;42.664;23.264;2023-05-17T07:42:31;93923.28;;;16.46;69.83
77041;BME280;65974;42.664;23.264;2023-05-17T07:44:57;93925.38;;;16.54;70.08
77041;BME280;65974;42.664;23.264;2023-05-17T07:47:22;93922.31;;;16.40;70.80
77041;BME280;65974;42.664;23.264;2023-05-17T07:49:48;93913.53;;;16.52;70.14
77041;BME280;65974;42.664;23.264;2023-05-17T07:52:13;93913.84;;;16.54;70.86
77041;BME280;65974;42.664;23.264;2023-05-17T07:54:39;93916.25;;;16.64;70.62
77041;BME280;65974;42.664;23.264;2023-05-17T07:57:04;93916.44;;;16.70;70.05
77041;BME280;65974;42.664;23.264;2023-05-17T07:59:30;93919.47;;;16.72;70.28
77041;BME280;65974;42.664;23.264;2023-05-17T08:01:56;93914.75;;;16.76;69.36
77041;BME280;65974;42.664;23.264;2023-05-17T08:04:21;93917.00;;;16.77;69.42
77041;BME280;65974;42.664;23.264;2023-05-17T08:06:48;93915.94;;;16.75;69.62
77041;BME280;65974;42.664;23.264;2023-05-17T08:09:14;93917.97;;;16.71;69.90
77041;BME280;65974;42.664;23.264;2023-05-17T08:11:41;93906.91;;;16.81;68.74
77041;BME280;65974;42.664;23.264;2023-05-17T08:14:11;93914.53;;;16.83;69.21
77041;BME280;65974;42.664;23.264;2023-05-17T08:16:37;93916.50;;;16.95;68.47
77041;BME280;65974;42.664;23.264;2023-05-17T08:19:02;93917.47;;;16.88;68.26
77041;BME280;65974;42.664;23.264;2023-05-17T08:21:28;93910.34;;;16.82;69.67
77041;BME280;65974;42.664;23.264;2023-05-17T08:23:54;93907.34;;;16.92;69.64
77041;BME280;65974;42.664;23.264;2023-05-17T08:26:19;93910.13;;;16.89;68.69
77041;BME280;65974;42.664;23.264;2023-05-17T08:28:46;93911.19;;;16.91;68.95
77041;BME280;65974;42.664;23.264;2023-05-17T08:31:11;93907.13;;;16.99;68.33
77041;BME280;65974;42.664;23.264;2023-05-17T08:33:37;93908.63;;;17.00;67.96
77041;BME280;65974;42.664;23.264;2023-05-17T08:36:03;93903.13;;;17.04;68.49
77041;BME280;65974;42.664;23.264;2023-05-17T08:38:32;93901.19;;;17.17;67.29
77041;BME280;65974;42.664;23.264;2023-05-17T08:40:58;93901.31;;;17.14;66.96
77041;BME280;65974;42.664;23.264;2023-05-17T08:43:24;93905.72;;;17.20;67.29
77041;BME280;65974;42.664;23.264;2023-05-17T08:45:50;93904.31;;;17.16;67.11
77041;BME280;65974;42.664;23.264;2023-05-17T08:48:17;93911.19;;;17.29;67.61
77041;BME280;65974;42.664;23.264;2023-05-17T08:50:45;93905.50;;;17.52;65.83
77041;BME280;65974;42.664;23.264;2023-05-17T08:53:12;93908.50;;;17.54;67.41
77041;BME280;65974;42.664;23.264;2023-05-17T08:55:43;93900.09;;;17.65;65.89
77041;BME280;65974;42.664;23.264;2023-05-17T08:58:09;93906.31;;;17.62;66.47
77041;BME280;65974;42.664;23.264;2023-05-17T09:00:36;93896.50;;;17.68;65.10
77041;BME280;65974;42.664;23.264;2023-05-17T09:03:02;93901.69;;;17.62;65.61
77041;BME280;65974;42.664;23.264;2023-05-17T09:05:28;93896.00;;;17.60;65.99
77041;BME280;65974;42.664;23.264;2023-05-17T09:07:55;93904.28;;;17.66;65.05
77041;BME280;65974;42.664;23.264;2023-05-17T09:10:20;93897.09;;;17.50;66.47
77041;BME280;65974;42.664;23.264;2023-05-17T09:12:47;93898.25;;;17.49;65.77
77041;BME280;65974;42.664;23.264;2023-05-17T09:15:14;93900.84;;;17.53;65.92
77041;BME280;65974;42.664;23.264;2023-05-17T09:17:40;93895.03;;;17.42;65.79
77041;BME280;65974;42.664;23.264;2023-05-17T09:20:06;93887.06;;;17.51;64.92
77041;BME280;65974;42.664;23.264;2023-05-17T09:22:33;93889.97;;;17.56;65.66
77041;BME280;65974;42.664;23.264;2023-05-17T09:24:59;93889.72;;;17.63;64.13
77041;BME280;65974;42.664;23.264;2023-05-17T09:27:30;93880.34;;;17.68;65.48
77041;BME280;65974;42.664;23.264;2023-05-17T09:29:56;93891.03;;;17.71;64.28
77041;BME280;65974;42.664;23.264;2023-05-17T09:32:22;93891.66;;;17.75;64.41
77041;BME280;65974;42.664;23.264;2023-05-17T09:34:49;93882.06;;;17.74;63.88
77041;BME280;65974;42.664;23.264;2023-05-17T09:37:18;93884.19;;;17.79;65.12
77041;BME280;65974;42.664;23.264;2023-05-17T09:39:45;93879.56;;;17.80;64.57
77041;BME280;65974;42.664;23.264;2023-05-17T09:42:12;93880.00;;;17.78;66.22
77041;BME280;65974;42.664;23.264;2023-05-17T09:47:21;93883.88;;;17.77;64.33
77041;BME280;65974;42.664;23.264;2023-05-17T09:49:46;93891.97;;;17.77;65.79
77041;BME280;65974;42.664;23.264;2023-05-17T09:52:16;93888.69;;;17.82;66.17
77041;BME280;65974;42.664;23.264;2023-05-17T09:54:42;93889.16;;;17.81;66.64
77041;BME280;65974;42.664;23.264;2023-05-17T09:57:07;93891.09;;;17.80;65.92
77041;BME280;65974;42.664;23.264;2023-05-17T09:59:35;93891.66;;;17.75;65.69
77041;BME280;65974;42.664;23.264;2023-05-17T10:02:01;93890.38;;;17.67;65.77
77041;BME280;65974;42.664;23.264;2023-05-17T10:04:31;93889.09;;;17.47;66.89
77041;BME280;65974;42.664;23.264;2023-05-17T10:06:59;93883.59;;;17.63;66.21
77041;BME280;65974;42.664;23.264;2023-05-17T10:09:25;93875.94;;;17.61;66.17
77041;BME280;65974;42.664;23.264;2023-05-17T10:11:51;93878.63;;;17.61;65.68
77041;BME280;65974;42.664;23.264;2023-05-17T10:14:26;93869.94;;;17.57;65.59
77041;BME280;65974;42.664;23.264;2023-05-17T10:16:53;93872.50;;;17.48;65.05
77041;BME280;65974;42.664;23.264;2023-05-17T10:19:19;93859.72;;;17.40;66.24
77041;BME280;65974;42.664;23.264;2023-05-17T10:21:47;93854.56;;;17.33;66.69
77041;BME280;65974;42.664;23.264;2023-05-17T10:24:13;93851.34;;;17.25;66.46
77041;BME280;65974;42.664;23.264;2023-05-17T10:26:40;93845.94;;;17.25;67.25
77041;BME280;65974;42.664;23.264;2023-05-17T10:29:06;93836.16;;;17.31;67.06
77041;BME280;65974;42.664;23.264;2023-05-17T10:31:32;93834.34;;;17.28;67.08
77041;BME280;65974;42.664;23.264;2023-05-17T10:34:02;93818.06;;;17.32;66.89
77041;BME280;65974;42.664;23.264;2023-05-17T10:36:29;93807.59;;;17.34;67.02
77041;BME280;65974;42.664;23.264;2023-05-17T10:38:55;93798.66;;;17.37;67.01
77041;BME280;65974;42.664;23.264;2023-05-17T10:41:24;93788.56;;;17.28;65.91
77041;BME280;65974;42.664;23.264;2023-05-17T10:43:52;93780.38;;;17.32;66.09
77041;BME280;65974;42.664;23.264;2023-05-17T10:46:18;93768.53;;;17.29;65.59
77041;BME280;65974;42.664;23.264;2023-05-17T10:48:49;93768.31;;;17.36;65.70
77041;BME280;65974;42.664;23.264;2023-05-17T10:51:21;93756.28;;;17.28;65.91
77041;BME280;65974;42.664;23.264;2023-05-17T10:54:11;93751.03;;;17.25;65.88
77041;BME280;65974;42.664;23.264;2023-05-17T10:56:48;93745.75;;;17.21;65.75
77041;BME280;65974;42.664;23.264;2023-05-17T11:01:54;93740.38;;;17.21;65.45
77041;BME280;65974;42.664;23.264;2023-05-17T11:04:23;93739.22;;;17.10;66.55
77041;BME280;65974;42.664;23.264;2023-05-17T11:06:55;93740.31;;;17.12;66.51
77041;BME280;65974;42.664;23.264;2023-05-17T11:09:39;93736.72;;;17.15;66.06
77041;BME280;65974;42.664;23.264;2023-05-17T11:12:05;93742.09;;;17.15;66.91
77041;BME280;65974;42.664;23.264;2023-05-17T11:17:23;93748.44;;;17.21;67.96
77041;BME280;65974;42.664;23.264;2023-05-17T11:22:24;93766.06;;;17.35;67.42
77041;BME280;65974;42.664;23.264;2023-05-17T11:24:51;93779.59;;;17.44;66.76
77041;BME280;65974;42.664;23.264;2023-05-17T11:27:20;93793.47;;;17.42;66.28
77041;BME280;65974;42.664;23.264;2023-05-17T11:29:52;93796.28;;;17.39;66.60
77041;BME280;65974;42.664;23.264;2023-05-17T11:32:18;93815.50;;;17.28;66.42
77041;BME280;65974;42.664;23.264;2023-05-17T11:34:53;93819.69;;;17.29;67.24
77041;BME280;65974;42.664;23.264;2023-05-17T11:37:26;93826.81;;;17.23;68.20
77041;BME280;65974;42.664;23.264;2023-05-17T11:40:05;93831.22;;;17.17;69.14
77041;BME280;65974;42.664;23.264;2023-05-17T11:42:33;93836.59;;;17.17;68.97
77041;BME280;65974;42.664;23.264;2023-05-17T11:45:01;93837.50;;;17.14;68.93
77041;BME280;65974;42.664;23.264;2023-05-17T11:47:28;93836.44;;;16.99;69.80
77041;BME280;65974;42.664;23.264;2023-05-17T11:50:00;93838.13;;;16.93;69.22
77041;BME280;65974;42.664;23.264;2023-05-17T11:52:27;93836.00;;;16.88;70.09
77041;BME280;65974;42.664;23.264;2023-05-17T11:54:53;93841.16;;;16.82;70.35
77041;BME280;65974;42.664;23.264;2023-05-17T11:57:19;93832.88;;;16.77;69.75
77041;BME280;65974;42.664;23.264;2023-05-17T11:59:47;93835.78;;;16.70;69.11
77041;BME280;65974;42.664;23.264;2023-05-17T12:02:26;93842.03;;;16.67;69.29
77041;BME280;65974;42.664;23.264;2023-05-17T12:04:52;93839.34;;;16.67;69.19
77041;BME280;65974;42.664;23.264;2023-05-17T12:07:17;93841.47;;;16.72;69.00
77041;BME280;65974;42.664;23.264;2023-05-17T12:09:43;93835.13;;;16.66;69.32
77041;BME280;65974;42.664;23.264;2023-05-17T12:12:09;93840.94;;;16.64;69.28
77041;BME280;65974;42.664;23.264;2023-05-17T12:14:35;93834.16;;;16.72;69.32
77041;BME280;65974;42.664;23.264;2023-05-17T12:17:02;93828.78;;;16.72;69.16
77041;BME280;65974;42.664;23.264;2023-05-17T12:19:30;93832.56;;;16.75;68.98
77041;BME280;65974;42.664;23.264;2023-05-17T12:22:09;93820.72;;;16.72;69.25
77041;BME280;65974;42.664;23.264;2023-05-17T12:24:40;93822.44;;;16.79;68.88
77041;BME280;65974;42.664;23.264;2023-05-17T12:27:07;93817.50;;;16.90;68.18
77041;BME280;65974;42.664;23.264;2023-05-17T12:29:32;93815.75;;;16.96;67.76
77041;BME280;65974;42.664;23.264;2023-05-17T12:31:58;93827.16;;;17.00;67.28
77041;BME280;65974;42.664;23.264;2023-05-17T12:34:25;93827.59;;;17.11;66.29
77041;BME280;65974;42.664;23.264;2023-05-17T12:36:51;93818.34;;;17.12;66.47
77041;BME280;65974;42.664;23.264;2023-05-17T12:39:18;93817.56;;;17.12;66.42
77041;BME280;65974;42.664;23.264;2023-05-17T12:41:48;93809.69;;;17.17;65.36
77041;BME280;65974;42.664;23.264;2023-05-17T12:44:14;93815.72;;;17.21;66.08
77041;BME280;65974;42.664;23.264;2023-05-17T12:46:40;93812.84;;;17.16;65.52
77041;BME280;65974;42.664;23.264;2023-05-17T12:49:07;93811.63;;;17.17;65.43
77041;BME280;65974;42.664;23.264;2023-05-17T12:51:40;93804.88;;;17.12;65.19
77041;BME280;65974;42.664;23.264;2023-05-17T12:54:08;93799.81;;;17.01;65.50
77041;BME280;65974;42.664;23.264;2023-05-17T12:56:34;93804.03;;;17.02;65.70
77041;BME280;65974;42.664;23.264;2023-05-17T13:01:35;93807.13;;;17.14;66.42
77041;BME280;65974;42.664;23.264;2023-05-17T13:04:04;93809.56;;;17.21;66.76
77041;BME280;65974;42.664;23.264;2023-05-17T13:06:43;93804.41;;;17.26;67.26